createdAt,value
2018-06-02T00:59:02.085Z,10.23
2018-06-02T01:01:29.575Z,9.80
2018-06-02T01:03:57.062Z,10.30
2018-06-02T01:06:25.314Z,9.57
2018-06-02T01:08:52.828Z,10.83
2018-06-02T01:11:20.310Z,10.57
2018-06-02T01:13:47.802Z,9.40
2018-06-02T01:16:16.801Z,11.70
2018-06-02T01:18:45.059Z,10.80
2018-06-02T01:21:12.538Z,12.50
2018-06-02T01:23:40.790Z,9.13
2018-06-02T01:26:08.784Z,13.50
2018-06-02T01:28:36.269Z,9.50
2018-06-02T01:31:03.920Z,13.27
2018-06-02T01:33:31.767Z,15.60
2018-06-02T01:35:59.653Z,7.70
2018-06-02T01:38:27.331Z,9.67
2018-06-02T01:40:54.964Z,13.10
2018-06-02T01:43:22.450Z,12.33
2018-06-02T01:45:49.925Z,8.20
2018-06-02T01:48:17.931Z,10.17
2018-06-02T01:50:45.419Z,9.13
2018-06-02T01:53:12.910Z,10.53
2018-06-02T01:55:40.395Z,14.70
2018-06-02T01:58:07.892Z,8.03
2018-06-02T02:00:36.177Z,9.67
2018-06-02T02:03:03.829Z,8.27
2018-06-02T02:05:31.325Z,14.50
2018-06-02T02:07:58.809Z,7.97
2018-06-02T02:10:26.297Z,6.73
2018-06-02T02:12:54.057Z,7.87
2018-06-02T02:15:21.538Z,8.13
2018-06-02T02:17:49.040Z,10.50
2018-06-02T02:20:16.861Z,6.80
2018-06-02T02:22:44.357Z,11.83
2018-06-02T02:25:11.945Z,9.60
2018-06-02T02:27:40.017Z,7.07
2018-06-02T02:30:07.687Z,9.07
2018-06-02T02:32:35.475Z,8.73
2018-06-02T02:35:03.270Z,8.77
2018-06-02T02:37:30.802Z,8.80
2018-06-02T02:39:58.285Z,8.03
2018-06-02T02:42:25.888Z,11.30
2018-06-02T02:44:53.393Z,9.07
2018-06-02T02:47:20.907Z,14.63
2018-06-02T02:49:48.877Z,7.83
2018-06-02T02:52:16.753Z,17.80
2018-06-02T02:54:44.250Z,11.93
2018-06-02T02:57:11.986Z,7.97
2018-06-02T02:59:39.513Z,9.50
2018-06-02T03:02:07.004Z,8.60
2018-06-02T03:04:34.497Z,15.40
2018-06-02T03:07:01.977Z,8.77
2018-06-02T03:09:29.464Z,7.30
2018-06-02T03:11:56.955Z,13.53
2018-06-02T03:14:24.753Z,8.80
2018-06-02T03:16:52.646Z,9.30
2018-06-02T03:19:20.325Z,14.20
2018-06-02T03:21:47.813Z,9.70
2018-06-02T03:24:15.452Z,10.17
2018-06-02T03:26:42.995Z,9.47
2018-06-02T03:29:10.469Z,8.53
2018-06-02T03:31:38.022Z,14.77
2018-06-02T03:34:05.520Z,9.23
2018-06-02T03:36:33.273Z,9.00
2018-06-02T03:39:00.808Z,9.17
2018-06-02T03:41:28.299Z,12.53
2018-06-02T03:43:55.918Z,9.57
2018-06-02T03:46:23.414Z,11.93
2018-06-02T03:48:50.906Z,8.50
2018-06-02T03:51:19.153Z,7.93
2018-06-02T03:53:46.636Z,9.23
2018-06-02T03:56:14.896Z,11.33
2018-06-02T03:58:42.380Z,9.37
2018-06-02T04:01:09.870Z,11.30
2018-06-02T04:03:37.368Z,8.27
2018-06-02T04:06:05.616Z,8.73
2018-06-02T04:08:33.125Z,7.97
2018-06-02T04:11:00.987Z,11.07
2018-06-02T04:13:29.233Z,8.50
2018-06-02T04:15:57.654Z,12.13
2018-06-02T04:18:25.148Z,8.93
2018-06-02T04:20:52.966Z,7.07
2018-06-02T04:23:20.850Z,9.37
2018-06-02T04:25:48.354Z,12.07
2018-06-02T04:28:15.860Z,11.20
2018-06-02T04:30:43.435Z,15.30
2018-06-02T04:33:11.067Z,8.03
2018-06-02T04:35:40.784Z,13.17
2018-06-02T04:38:09.039Z,7.67
2018-06-02T04:40:36.518Z,7.87
2018-06-02T04:43:05.064Z,7.93
2018-06-02T04:45:34.064Z,10.87
2018-06-02T04:48:02.061Z,7.53
2018-06-02T04:50:29.561Z,10.30
2018-06-02T04:52:57.054Z,8.30
2018-06-02T04:55:24.536Z,9.20
2018-06-02T04:57:52.033Z,13.60
2018-06-02T05:00:19.958Z,8.37
2018-06-02T05:02:47.837Z,9.13
2018-06-02T05:05:15.316Z,8.50
2018-06-02T05:07:42.804Z,8.57
2018-06-02T05:10:10.319Z,11.90
2018-06-02T05:12:37.859Z,8.73
2018-06-02T05:15:05.545Z,8.70
2018-06-02T05:17:33.713Z,7.73
2018-06-02T05:20:01.349Z,8.50
2018-06-02T05:22:29.620Z,12.20
2018-06-02T05:24:57.930Z,7.30
2018-06-02T05:27:25.457Z,9.17
2018-06-02T05:29:52.942Z,9.33
2018-06-02T05:32:20.597Z,7.00
2018-06-02T05:34:48.081Z,9.30
2018-06-02T05:37:15.567Z,9.80
2018-06-02T05:39:43.186Z,9.30
2018-06-02T05:42:10.659Z,9.17
2018-06-02T05:44:38.485Z,9.70
2018-06-02T05:47:06.173Z,7.77
2018-06-02T05:49:33.804Z,8.07
2018-06-02T05:52:01.302Z,11.67
2018-06-02T05:54:28.921Z,9.20
2018-06-02T05:56:56.431Z,8.43
2018-06-02T05:59:23.924Z,7.93
2018-06-02T06:01:52.534Z,9.23
2018-06-02T06:04:20.045Z,9.97
2018-06-02T06:06:47.564Z,8.17
2018-06-02T06:09:15.058Z,9.40
2018-06-02T06:11:42.572Z,9.07
2018-06-02T06:14:10.076Z,10.50
2018-06-02T06:16:37.597Z,10.13
2018-06-02T06:19:05.534Z,8.50
2018-06-02T06:21:33.004Z,9.63
2018-06-02T06:24:02.413Z,10.67
2018-06-02T06:26:30.463Z,10.23
2018-06-02T06:28:58.798Z,10.83
2018-06-02T06:31:26.304Z,8.37
2018-06-02T06:33:53.792Z,7.63
2018-06-02T06:36:21.305Z,8.77
2018-06-02T06:38:49.554Z,8.17
2018-06-02T06:41:17.353Z,9.17
2018-06-02T06:43:45.024Z,8.07
2018-06-02T06:46:12.514Z,8.43
2018-06-02T06:48:39.995Z,9.53
2018-06-02T06:51:07.492Z,8.97
2018-06-02T06:53:34.981Z,7.60
2018-06-02T06:56:02.476Z,6.03
2018-06-02T06:58:29.944Z,7.33
2018-06-02T07:00:57.441Z,9.67
2018-06-02T07:03:24.957Z,7.73
2018-06-02T07:05:52.559Z,6.50
2018-06-02T07:08:20.418Z,8.77
2018-06-02T07:10:47.901Z,6.23
2018-06-02T07:13:15.732Z,8.57
2018-06-02T07:15:43.265Z,6.63
2018-06-02T07:18:10.840Z,6.97
2018-06-02T07:20:38.714Z,8.00
2018-06-02T07:23:07.084Z,6.63
2018-06-02T07:25:34.963Z,7.00
2018-06-02T07:28:02.666Z,7.73
2018-06-02T07:30:30.700Z,7.77
2018-06-02T07:32:58.337Z,8.23
2018-06-02T07:35:25.844Z,8.27
2018-06-02T07:37:53.381Z,10.87
2018-06-02T07:40:22.357Z,7.60
2018-06-02T07:42:50.687Z,6.10
2018-06-02T07:45:18.172Z,6.00
2018-06-02T07:47:46.288Z,6.20
2018-06-02T07:50:13.797Z,7.43
2018-06-02T07:52:41.278Z,6.33
2018-06-02T07:55:09.550Z,6.83
2018-06-02T07:57:37.868Z,6.57
2018-06-02T08:00:06.140Z,10.07
2018-06-02T08:02:33.799Z,6.83
2018-06-02T08:05:01.444Z,6.43
2018-06-02T08:07:28.935Z,7.97
2018-06-02T08:09:56.416Z,9.73
2018-06-02T08:12:24.855Z,8.20
2018-06-02T08:14:52.616Z,7.37
2018-06-02T08:17:20.787Z,7.07
2018-06-02T08:19:48.284Z,6.70
2018-06-02T08:22:15.804Z,8.57
2018-06-02T08:24:43.618Z,9.73
2018-06-02T08:27:12.103Z,9.13
2018-06-02T08:29:39.608Z,9.70
2018-06-02T08:32:07.265Z,8.83
2018-06-02T08:34:35.059Z,6.77
2018-06-02T08:37:02.549Z,11.23
2018-06-02T08:39:31.442Z,7.47
2018-06-02T08:41:58.928Z,7.70
2018-06-02T08:44:26.415Z,6.63
2018-06-02T08:46:54.060Z,5.80
2018-06-02T08:49:21.570Z,5.50
2018-06-02T08:51:49.178Z,5.50
2018-06-02T08:54:17.064Z,6.43
2018-06-02T08:56:44.901Z,5.27
2018-06-02T08:59:13.311Z,6.05
2018-06-02T09:01:40.800Z,5.85
2018-06-02T09:04:08.296Z,6.30
2018-06-02T09:06:35.871Z,7.27
2018-06-02T09:09:03.336Z,6.67
2018-06-02T09:11:30.931Z,7.28
2018-06-02T09:13:58.421Z,5.60
2018-06-02T09:16:26.056Z,6.60
2018-06-02T09:18:55.527Z,6.80
2018-06-02T09:21:23.401Z,4.10
2018-06-02T09:23:52.705Z,4.63
2018-06-02T09:26:20.680Z,6.90
2018-06-02T09:28:48.296Z,4.33
2018-06-02T09:31:15.794Z,5.40
2018-06-02T09:33:43.728Z,5.37
2018-06-02T09:36:11.259Z,3.23
2018-06-02T09:38:39.498Z,3.57
2018-06-02T09:41:08.467Z,4.25
2018-06-02T09:43:36.006Z,3.80
2018-06-02T09:46:04.264Z,5.65
2018-06-02T09:48:32.979Z,5.43
2018-06-02T09:51:00.481Z,4.15
2018-06-02T09:53:28.804Z,6.07
2018-06-02T09:55:56.310Z,3.60
2018-06-02T09:58:23.818Z,5.33
2018-06-02T10:00:51.337Z,4.93
2018-06-02T10:03:18.860Z,3.53
2018-06-02T10:05:48.082Z,3.40
2018-06-02T10:08:15.570Z,5.43
2018-06-02T10:10:43.068Z,5.40
2018-06-02T10:13:11.172Z,5.20
2018-06-02T10:15:38.731Z,6.00
2018-06-02T10:18:06.220Z,5.83
2018-06-02T10:20:34.007Z,4.97
2018-06-02T10:23:01.634Z,6.23
2018-06-02T10:25:29.171Z,5.13
2018-06-02T10:27:56.667Z,6.33
2018-06-02T10:30:24.147Z,6.40
2018-06-02T10:32:51.679Z,6.63
2018-06-02T10:35:19.614Z,6.23
2018-06-02T10:37:47.113Z,6.20
2018-06-02T10:40:14.612Z,4.83
2018-06-02T10:42:42.088Z,4.83
2018-06-02T10:45:10.627Z,4.43
2018-06-02T10:47:38.889Z,7.10
2018-06-02T10:50:06.394Z,5.35
2018-06-02T10:52:33.895Z,3.57
2018-06-02T10:55:01.450Z,4.10
2018-06-02T10:57:29.078Z,4.53
2018-06-02T10:59:56.578Z,4.53
2018-06-02T11:02:24.387Z,4.20
2018-06-02T11:04:51.886Z,4.40
2018-06-02T11:07:19.730Z,4.63
2018-06-02T11:09:47.410Z,6.17
2018-06-02T11:12:14.946Z,3.77
2018-06-02T11:14:42.439Z,3.57
2018-06-02T11:17:09.950Z,4.97
2018-06-02T11:19:38.299Z,6.13
2018-06-02T11:22:06.177Z,3.93
2018-06-02T11:24:33.771Z,4.53
2018-06-02T11:27:01.849Z,3.17
2018-06-02T11:29:29.395Z,3.60
2018-06-02T11:31:56.897Z,3.43
2018-06-02T11:34:25.575Z,3.93
2018-06-02T11:36:53.097Z,4.77
2018-06-02T11:39:20.617Z,4.40
2018-06-02T11:41:49.588Z,5.93
2018-06-02T11:44:17.128Z,2.90
2018-06-02T11:46:44.613Z,3.70
2018-06-02T11:49:12.128Z,4.27
2018-06-02T11:51:39.608Z,3.77
2018-06-02T11:54:07.493Z,2.80
2018-06-02T11:56:35.752Z,4.50
2018-06-02T11:59:03.241Z,5.03
2018-06-02T12:01:31.011Z,3.80
2018-06-02T12:03:58.917Z,2.87
2018-06-02T12:06:26.451Z,3.00
2018-06-02T12:08:53.959Z,3.20
2018-06-02T12:11:21.577Z,2.60
2018-06-02T12:13:49.850Z,4.30
2018-06-02T12:16:17.401Z,2.40
2018-06-02T12:18:45.060Z,4.60
2018-06-02T12:21:13.588Z,2.87
2018-06-02T12:23:41.128Z,4.23
2018-06-02T12:26:08.604Z,2.77
2018-06-02T12:28:37.136Z,3.70
2018-06-02T12:31:04.609Z,3.47
2018-06-02T12:33:32.573Z,3.37
2018-06-02T12:36:00.824Z,4.07
2018-06-02T12:38:28.355Z,3.60
2018-06-02T12:40:56.156Z,2.57
2018-06-02T12:43:24.572Z,2.87
2018-06-02T12:45:52.525Z,3.83
2018-06-02T12:48:20.484Z,4.00
2018-06-02T12:50:47.987Z,4.10
2018-06-02T12:53:15.466Z,2.30
2018-06-02T12:55:42.993Z,3.07
2018-06-02T12:58:11.044Z,2.73
2018-06-02T13:00:38.526Z,2.23
2018-06-02T13:03:06.029Z,5.47
2018-06-02T13:05:33.711Z,2.43
2018-06-02T13:08:01.285Z,3.33
2018-06-02T13:10:28.924Z,3.33
2018-06-02T13:12:57.055Z,3.33
2018-06-02T13:15:24.724Z,3.53
2018-06-02T13:17:52.223Z,3.67
2018-06-02T13:20:19.702Z,3.77
2018-06-02T13:22:47.200Z,3.33
2018-06-02T13:25:14.695Z,3.00
2018-06-02T13:27:43.076Z,3.33
2018-06-02T13:30:11.050Z,3.40
2018-06-02T13:32:38.921Z,3.13
2018-06-02T13:35:06.426Z,5.33
2018-06-02T13:37:33.928Z,4.20
2018-06-02T13:40:02.421Z,3.17
2018-06-02T13:42:29.912Z,3.13
2018-06-02T13:44:57.420Z,2.83
2018-06-02T13:47:25.519Z,3.20
2018-06-02T13:49:53.016Z,2.20
2018-06-02T13:52:20.520Z,2.10
2018-06-02T13:54:48.071Z,3.30
2018-06-02T13:57:16.471Z,4.83
2018-06-02T13:59:43.965Z,3.03
2018-06-02T14:02:11.721Z,4.50
2018-06-02T14:04:39.978Z,3.97
2018-06-02T14:07:07.609Z,2.80
2018-06-02T14:09:35.891Z,2.30
2018-06-02T14:12:03.392Z,3.13
2018-06-02T14:14:30.997Z,3.10
2018-06-02T14:16:58.819Z,2.20
2018-06-02T14:19:26.633Z,2.70
2018-06-02T14:21:54.115Z,1.97
2018-06-02T14:24:21.672Z,2.77
2018-06-02T14:26:49.180Z,2.47
2018-06-02T14:29:17.459Z,2.90
2018-06-02T14:31:46.397Z,1.93
2018-06-02T14:34:13.917Z,2.63
2018-06-02T14:36:41.596Z,2.43
2018-06-02T14:39:10.390Z,2.17
2018-06-02T14:41:37.886Z,3.47
2018-06-02T14:44:05.514Z,3.03
2018-06-02T14:46:32.996Z,2.43
2018-06-02T14:49:00.719Z,3.27
2018-06-02T14:51:29.310Z,3.40
2018-06-02T14:53:58.014Z,3.50
2018-06-02T14:56:25.529Z,2.83
2018-06-02T14:58:53.031Z,2.83
2018-06-02T15:01:20.741Z,4.17
2018-06-02T15:03:48.281Z,2.90
2018-06-02T15:06:16.416Z,4.30
2018-06-02T15:08:43.913Z,2.80
2018-06-02T15:11:11.771Z,2.20
2018-06-02T15:13:40.280Z,3.67
2018-06-02T15:16:08.142Z,2.37
2018-06-02T15:18:35.644Z,4.43
2018-06-02T15:21:03.171Z,2.70
2018-06-02T15:23:31.061Z,5.20
2018-06-02T15:25:59.637Z,4.87
2018-06-02T15:28:27.408Z,3.57
2018-06-02T15:30:54.917Z,2.43
2018-06-02T15:33:22.455Z,3.07
2018-06-02T15:35:49.928Z,2.27
2018-06-02T15:38:17.839Z,3.27
2018-06-02T15:40:45.418Z,3.17
2018-06-02T15:43:13.054Z,5.77
2018-06-02T15:45:40.932Z,3.23
2018-06-02T15:48:08.450Z,3.67
2018-06-02T15:50:35.972Z,2.93
2018-06-02T15:53:04.362Z,6.73
2018-06-02T15:55:31.912Z,4.53
2018-06-02T15:57:59.408Z,5.23
2018-06-02T16:00:26.895Z,4.93
2018-06-02T16:02:54.392Z,4.37
2018-06-02T16:05:21.885Z,4.27
2018-06-02T16:07:49.392Z,3.17
2018-06-02T16:10:16.877Z,4.33
2018-06-02T16:12:44.365Z,5.20
2018-06-02T16:15:12.257Z,2.87
2018-06-02T16:17:40.466Z,2.80
2018-06-02T16:20:07.992Z,3.17
2018-06-02T16:22:35.485Z,2.60
2018-06-02T16:25:02.998Z,4.53
2018-06-02T16:27:30.543Z,4.27
2018-06-02T16:29:58.054Z,2.47
2018-06-02T16:32:25.584Z,2.53
2018-06-02T16:34:53.099Z,2.43
2018-06-02T16:37:21.101Z,3.47
2018-06-02T16:39:48.797Z,3.20
2018-06-02T16:42:16.302Z,4.73
2018-06-02T16:44:43.971Z,3.20
2018-06-02T16:47:12.472Z,4.77
2018-06-02T16:49:39.948Z,11.33
2018-06-02T16:52:07.459Z,4.07
2018-06-02T16:54:36.459Z,4.17
2018-06-02T16:57:03.972Z,4.93
2018-06-02T16:59:31.791Z,5.17
2018-06-02T17:02:00.409Z,3.80
2018-06-02T17:04:27.909Z,2.53
2018-06-02T17:06:55.400Z,6.90
2018-06-02T17:09:23.675Z,3.00
2018-06-02T17:11:51.932Z,5.43
2018-06-02T17:14:21.073Z,4.77
2018-06-02T17:16:48.842Z,3.17
2018-06-02T17:19:16.341Z,4.97
2018-06-02T17:21:45.172Z,3.00
2018-06-02T17:24:13.103Z,4.97
2018-06-02T17:26:40.615Z,3.87
2018-06-02T17:29:08.325Z,3.23
2018-06-02T17:31:36.133Z,6.13
2018-06-02T17:34:03.662Z,3.57
2018-06-02T17:36:31.946Z,4.50
2018-06-02T17:39:00.205Z,4.33
2018-06-02T17:41:28.223Z,2.10
2018-06-02T17:43:55.884Z,3.87
2018-06-02T17:46:23.382Z,2.13
2018-06-02T17:48:51.596Z,3.20
2018-06-02T17:51:19.089Z,3.43
2018-06-02T17:53:46.582Z,2.00
2018-06-02T17:56:14.573Z,2.20
2018-06-02T17:58:42.063Z,2.67
2018-06-02T18:01:09.700Z,2.40
2018-06-02T18:03:37.359Z,1.73
2018-06-02T18:06:04.869Z,4.93
2018-06-02T18:08:32.421Z,2.23
2018-06-02T18:10:59.886Z,2.10
2018-06-02T18:13:27.936Z,1.97
2018-06-02T18:15:55.432Z,2.80
2018-06-02T18:18:22.941Z,2.40
2018-06-02T18:20:50.450Z,4.27
2018-06-02T18:23:17.981Z,2.80
2018-06-02T18:25:45.621Z,4.63
2018-06-02T18:28:13.182Z,2.37
2018-06-02T18:30:41.391Z,4.20
2018-06-02T18:33:08.918Z,4.37
2018-06-02T18:35:36.407Z,3.87
2018-06-02T18:38:04.545Z,3.20
2018-06-02T18:40:32.170Z,3.00
2018-06-02T18:42:59.685Z,4.17
2018-06-02T18:45:27.179Z,2.90
2018-06-02T18:47:54.691Z,4.10
2018-06-02T18:50:22.192Z,3.10
2018-06-02T18:52:50.074Z,3.70
2018-06-02T18:55:17.774Z,3.03
2018-06-02T18:57:45.281Z,2.80
2018-06-02T19:00:13.185Z,4.87
2018-06-02T19:02:40.664Z,4.40
2018-06-02T19:05:08.166Z,3.33
2018-06-02T19:07:36.251Z,6.10
2018-06-02T19:10:03.771Z,4.47
2018-06-02T19:12:31.271Z,5.03
2018-06-02T19:14:58.750Z,4.60
2018-06-02T19:17:26.537Z,2.57
2018-06-02T19:19:54.046Z,4.07
2018-06-02T19:22:22.306Z,3.90
2018-06-02T19:24:50.719Z,7.17
2018-06-02T19:27:18.501Z,4.90
2018-06-02T19:29:46.007Z,5.13
2018-06-02T19:32:14.284Z,3.33
2018-06-02T19:34:42.917Z,3.30
2018-06-02T19:37:10.419Z,3.67
2018-06-02T19:39:38.516Z,3.00
2018-06-02T19:42:06.093Z,5.43
2018-06-02T19:44:33.601Z,3.33
2018-06-02T19:47:01.111Z,4.13
2018-06-02T19:49:28.805Z,4.07
2018-06-02T19:51:56.312Z,3.37
2018-06-02T19:54:24.312Z,5.73
2018-06-02T19:56:51.800Z,3.27
2018-06-02T19:59:19.319Z,3.73
2018-06-02T20:01:46.823Z,7.40
2018-06-02T20:04:14.305Z,6.33
2018-06-02T20:06:42.071Z,10.20
2018-06-02T20:09:09.573Z,3.77
2018-06-02T20:11:37.609Z,3.73
2018-06-02T20:14:05.158Z,5.73
2018-06-02T20:16:32.648Z,6.10
2018-06-02T20:19:00.397Z,5.77
2018-06-02T20:21:27.893Z,5.50
2018-06-02T20:23:55.421Z,6.97
2018-06-02T20:26:23.125Z,4.60
2018-06-02T20:28:50.745Z,8.67
2018-06-02T20:31:18.260Z,8.87
2018-06-02T20:33:45.763Z,7.10
2018-06-02T20:36:13.298Z,9.27
2018-06-02T20:38:41.071Z,4.83
2018-06-02T20:41:08.954Z,12.57
2018-06-02T20:43:36.460Z,10.27
2018-06-02T20:46:04.171Z,11.67
2018-06-02T20:48:31.664Z,15.80
2018-06-02T20:50:59.163Z,11.13
2018-06-02T20:53:26.679Z,7.00
2018-06-02T20:55:54.712Z,7.27
2018-06-02T20:58:22.213Z,12.50
2018-06-02T21:00:49.715Z,8.50
2018-06-02T21:03:17.207Z,8.77
2018-06-02T21:05:44.746Z,11.03
2018-06-02T21:08:12.241Z,11.93
2018-06-02T21:10:40.376Z,8.77
2018-06-02T21:13:07.876Z,9.47
2018-06-02T21:15:36.156Z,12.33
2018-06-02T21:18:03.948Z,16.90
2018-06-02T21:20:31.826Z,19.77
2018-06-02T21:22:59.629Z,19.93
2018-06-02T21:25:27.143Z,11.47
2018-06-02T21:27:54.657Z,9.93
2018-06-02T21:30:22.494Z,5.60
2018-06-02T21:32:50.746Z,9.27
2018-06-02T21:35:18.260Z,6.37
2018-06-02T21:37:46.061Z,7.33
2018-06-02T21:40:14.334Z,5.27
2018-06-02T21:42:42.424Z,9.23
2018-06-02T21:45:10.112Z,7.40
2018-06-02T21:47:37.607Z,5.30
2018-06-02T21:50:05.133Z,5.77
2018-06-02T21:52:32.617Z,8.10
2018-06-02T21:55:00.536Z,8.63
